createdAt,value
2023-05-13T00:00:11.625Z,22.37
2023-05-13T00:01:11.684Z,22.37
2023-05-13T00:02:11.719Z,22.37
2023-05-13T00:03:11.957Z,22.37
2023-05-13T00:04:11.811Z,22.37
2023-05-13T00:05:11.856Z,22.37
2023-05-13T00:06:11.935Z,22.37
2023-05-13T00:07:11.933Z,22.37
2023-05-13T00:08:11.984Z,22.37
2023-05-13T00:09:12.022Z,22.37
2023-05-13T00:10:12.076Z,22.36
2023-05-13T00:11:12.114Z,22.36
2023-05-13T00:12:12.232Z,22.37
2023-05-13T00:13:12.204Z,22.36
2023-05-13T00:14:12.242Z,22.36
2023-05-13T00:15:12.282Z,22.37
2023-05-13T00:16:12.351Z,22.37
2023-05-13T00:17:12.373Z,22.37
2023-05-13T00:18:12.410Z,22.37
2023-05-13T00:19:12.632Z,22.37
2023-05-13T00:20:12.490Z,22.37
2023-05-13T00:21:12.597Z,22.38
2023-05-13T00:22:12.582Z,22.37
2023-05-13T00:23:12.622Z,22.36
2023-05-13T00:24:12.655Z,22.37
2023-05-13T00:25:12.832Z,22.38
2023-05-13T00:26:12.781Z,22.37
2023-05-13T00:27:12.791Z,22.37
2023-05-13T00:28:12.839Z,22.37
2023-05-13T00:29:12.895Z,22.37
2023-05-13T00:30:12.936Z,22.37
2023-05-13T00:31:12.989Z,22.37
2023-05-13T00:32:13.022Z,22.36
2023-05-13T00:33:13.064Z,22.37
2023-05-13T00:34:13.107Z,22.37
2023-05-13T00:35:13.165Z,22.37
2023-05-13T00:36:13.204Z,22.37
2023-05-13T00:37:13.245Z,22.37
2023-05-13T00:38:13.298Z,22.38
2023-05-13T00:39:13.355Z,22.37
2023-05-13T00:40:13.387Z,22.37
2023-05-13T00:41:13.446Z,22.37
2023-05-13T00:42:13.490Z,22.37
2023-05-13T00:43:13.538Z,22.36
2023-05-13T00:44:14.694Z,22.36
2023-05-13T00:45:13.629Z,22.37
2023-05-13T00:46:13.724Z,22.36
2023-05-13T00:47:13.731Z,22.36
2023-05-13T00:48:13.784Z,22.36
2023-05-13T00:49:13.830Z,22.36
2023-05-13T00:50:13.884Z,22.37
2023-05-13T00:51:13.914Z,22.36
2023-05-13T00:52:13.960Z,22.36
2023-05-13T00:53:14.016Z,22.35
2023-05-13T00:54:14.061Z,22.36
2023-05-13T00:55:14.111Z,22.36
2023-05-13T00:56:14.148Z,22.36
2023-05-13T00:57:14.190Z,22.37
2023-05-13T00:58:14.254Z,22.35
2023-05-13T00:59:14.288Z,22.36
2023-05-13T01:00:14.343Z,22.35
2023-05-13T01:01:14.409Z,22.35
2023-05-13T01:02:14.460Z,22.36
2023-05-13T01:03:14.574Z,22.36
2023-05-13T01:04:14.532Z,22.35
2023-05-13T01:05:14.583Z,22.36
2023-05-13T01:06:14.626Z,22.35
2023-05-13T01:07:14.677Z,22.36
2023-05-13T01:08:14.725Z,22.35
2023-05-13T01:09:14.777Z,22.35
2023-05-13T01:10:14.829Z,22.36
2023-05-13T01:11:14.878Z,22.35
2023-05-13T01:12:14.930Z,22.35
2023-05-13T01:13:14.976Z,22.36
2023-05-13T01:14:15.035Z,22.36
2023-05-13T01:15:15.073Z,22.35
2023-05-13T01:16:15.123Z,22.35
2023-05-13T01:17:15.164Z,22.36
2023-05-13T01:18:15.206Z,22.35
2023-05-13T01:19:15.320Z,22.35
2023-05-13T01:20:15.303Z,22.35
2023-05-13T01:21:15.342Z,22.35
2023-05-13T01:22:15.388Z,22.36
2023-05-13T01:23:15.441Z,22.35
2023-05-13T01:24:15.499Z,22.36
2023-05-13T01:25:15.692Z,22.35
2023-05-13T01:26:15.599Z,22.35
2023-05-13T01:27:15.631Z,22.34
2023-05-13T01:28:15.674Z,22.35
2023-05-13T01:29:15.711Z,22.35
2023-05-13T01:30:15.763Z,22.36
2023-05-13T01:31:15.850Z,22.35
2023-05-13T01:32:15.855Z,22.36
2023-05-13T01:33:15.910Z,22.35
2023-05-13T01:34:15.951Z,22.34
2023-05-13T01:35:16.000Z,22.35
2023-05-13T01:36:16.040Z,22.34
2023-05-13T01:37:16.099Z,22.34
2023-05-13T01:38:16.147Z,22.35
2023-05-13T01:39:16.203Z,22.34
2023-05-13T01:40:31.061Z,22.34
2023-05-13T01:41:17.231Z,22.33
2023-05-13T01:42:16.222Z,22.34
2023-05-13T01:43:16.222Z,22.34
2023-05-13T01:44:16.207Z,22.34
2023-05-13T01:45:16.202Z,22.34
2023-05-13T01:46:16.251Z,22.34
2023-05-13T01:47:16.188Z,22.34
2023-05-13T01:48:16.189Z,22.34
2023-05-13T01:49:16.182Z,22.34
2023-05-13T01:50:16.175Z,22.34
2023-05-13T01:51:16.169Z,22.34
2023-05-13T01:52:16.197Z,22.34
2023-05-13T01:53:16.245Z,22.34
2023-05-13T01:54:16.313Z,22.35
2023-05-13T01:55:16.330Z,22.34
2023-05-13T01:56:16.382Z,22.35
2023-05-13T01:57:16.424Z,22.34
2023-05-13T01:58:16.488Z,22.34
2023-05-13T01:59:16.535Z,22.34
2023-05-13T02:00:16.578Z,22.34
2023-05-13T02:01:16.653Z,22.34
2023-05-13T02:02:16.754Z,22.34
2023-05-13T02:03:16.860Z,22.34
2023-05-13T02:04:16.764Z,22.34
2023-05-13T02:05:16.840Z,22.34
2023-05-13T02:06:16.925Z,22.34
2023-05-13T02:07:16.905Z,22.33
2023-05-13T02:08:16.957Z,22.34
2023-05-13T02:09:17.013Z,22.34
2023-05-13T02:10:17.055Z,22.33
2023-05-13T02:11:17.096Z,22.34
2023-05-13T02:12:17.148Z,22.33
2023-05-13T02:13:17.196Z,22.34
2023-05-13T02:14:17.243Z,22.35
2023-05-13T02:15:17.294Z,22.34
2023-05-13T02:16:17.406Z,22.34
2023-05-13T02:17:17.382Z,22.33
2023-05-13T02:18:17.430Z,22.34
2023-05-13T02:19:17.477Z,22.33
2023-05-13T02:20:17.515Z,22.33
2023-05-13T02:21:17.565Z,22.33
2023-05-13T02:22:17.616Z,22.33
2023-05-13T02:23:17.665Z,22.33
2023-05-13T02:24:17.699Z,22.33
2023-05-13T02:25:17.758Z,22.33
2023-05-13T02:26:17.775Z,22.33
2023-05-13T02:27:17.830Z,22.32
2023-05-13T02:28:17.880Z,22.33
2023-05-13T02:29:17.925Z,22.33
2023-05-13T02:30:17.967Z,22.33
2023-05-13T02:31:18.017Z,22.33
2023-05-13T02:32:18.132Z,22.33
2023-05-13T02:33:18.155Z,22.33
2023-05-13T02:34:18.175Z,22.33
2023-05-13T02:35:18.213Z,22.33
2023-05-13T02:36:18.256Z,22.32
2023-05-13T02:37:18.315Z,22.32
2023-05-13T02:38:18.347Z,22.33
2023-05-13T02:39:19.132Z,22.33
2023-05-13T02:40:18.477Z,22.32
2023-05-13T02:41:18.557Z,22.32
2023-05-13T02:42:18.542Z,22.33
2023-05-13T02:43:18.642Z,22.32
2023-05-13T02:44:18.647Z,22.32
2023-05-13T02:45:18.689Z,22.32
2023-05-13T02:46:18.847Z,22.32
2023-05-13T02:47:18.788Z,22.33
2023-05-13T02:48:18.818Z,22.32
2023-05-13T02:49:18.887Z,22.32
2023-05-13T02:50:19.178Z,22.33
2023-05-13T02:51:18.954Z,22.33
2023-05-13T02:52:19.013Z,22.32
2023-05-13T02:53:19.069Z,22.32
2023-05-13T02:54:19.183Z,22.33
2023-05-13T02:55:19.229Z,22.33
2023-05-13T02:56:19.194Z,22.33
2023-05-13T02:57:19.250Z,22.32
2023-05-13T02:58:19.300Z,22.32
2023-05-13T02:59:19.350Z,22.33
2023-05-13T03:00:19.498Z,22.32
2023-05-13T03:01:19.471Z,22.33
2023-05-13T03:02:19.503Z,22.31
2023-05-13T03:03:19.650Z,22.31
2023-05-13T03:04:19.565Z,22.31
2023-05-13T03:05:19.639Z,22.31
2023-05-13T03:06:19.661Z,22.32
2023-05-13T03:07:19.701Z,22.32
2023-05-13T03:08:19.748Z,22.32
2023-05-13T03:09:19.793Z,22.32
2023-05-13T03:10:20.049Z,22.32
2023-05-13T03:11:19.893Z,22.31
2023-05-13T03:12:19.940Z,22.32
2023-05-13T03:13:19.988Z,22.32
2023-05-13T03:14:20.041Z,22.32
2023-05-13T03:15:20.089Z,22.32
2023-05-13T03:16:20.205Z,22.31
2023-05-13T03:17:20.265Z,22.32
2023-05-13T03:18:20.249Z,22.31
2023-05-13T03:19:20.277Z,22.31
2023-05-13T03:20:20.510Z,22.32
2023-05-13T03:21:20.386Z,22.31
2023-05-13T03:22:20.431Z,22.31
2023-05-13T03:23:20.485Z,22.32
2023-05-13T03:24:20.547Z,22.32
2023-05-13T03:25:20.576Z,22.32
2023-05-13T03:26:20.629Z,22.33
2023-05-13T03:27:20.689Z,22.31
2023-05-13T03:28:20.733Z,22.32
2023-05-13T03:29:20.784Z,22.31
2023-05-13T03:30:20.922Z,22.31
2023-05-13T03:31:20.905Z,22.32
2023-05-13T03:32:20.969Z,22.31
2023-05-13T03:33:20.993Z,22.32
2023-05-13T03:34:21.047Z,22.32
2023-05-13T03:35:21.094Z,22.32
2023-05-13T03:36:21.128Z,22.31
2023-05-13T03:37:21.166Z,22.31
2023-05-13T03:38:21.239Z,22.31
2023-05-13T03:39:21.269Z,22.31
2023-05-13T03:40:21.565Z,22.32
2023-05-13T03:41:21.361Z,22.32
2023-05-13T03:42:21.412Z,22.31
2023-05-13T03:43:21.466Z,22.31
2023-05-13T03:44:21.514Z,22.31
2023-05-13T03:45:21.573Z,22.31
2023-05-13T03:46:21.662Z,22.31
2023-05-13T03:47:21.670Z,22.32
2023-05-13T03:48:21.718Z,22.31
2023-05-13T03:49:21.779Z,22.30
2023-05-13T03:50:21.962Z,22.32
2023-05-13T03:51:21.865Z,22.30
2023-05-13T03:52:21.926Z,22.31
2023-05-13T03:53:21.969Z,22.31
2023-05-13T03:54:22.020Z,22.31
2023-05-13T03:55:22.072Z,22.31
2023-05-13T03:56:22.125Z,22.31
2023-05-13T03:57:22.174Z,22.31
2023-05-13T03:58:22.222Z,22.31
2023-05-13T03:59:22.269Z,22.31
2023-05-13T04:00:22.515Z,22.31
2023-05-13T04:01:22.384Z,22.31
2023-05-13T04:02:22.677Z,22.31
2023-05-13T04:03:22.493Z,22.31
2023-05-13T04:04:22.706Z,22.31
2023-05-13T04:05:22.617Z,22.30
2023-05-13T04:06:22.630Z,22.31
2023-05-13T04:07:22.676Z,22.30
2023-05-13T04:08:22.739Z,22.30
2023-05-13T04:09:22.778Z,22.31
2023-05-13T04:10:22.989Z,22.30
2023-05-13T04:11:22.961Z,22.30
2023-05-13T04:12:22.937Z,22.30
2023-05-13T04:13:22.989Z,22.30
2023-05-13T04:14:23.043Z,22.30
2023-05-13T04:15:23.084Z,22.30
2023-05-13T04:16:23.155Z,22.30
2023-05-13T04:17:23.197Z,22.30
2023-05-13T04:18:23.275Z,22.31
2023-05-13T04:19:23.289Z,22.30
2023-05-13T04:20:23.566Z,22.30
2023-05-13T04:21:23.414Z,22.30
2023-05-13T04:22:23.453Z,22.30
2023-05-13T04:23:23.517Z,22.30
2023-05-13T04:24:23.552Z,22.30
2023-05-13T04:25:23.608Z,22.30
2023-05-13T04:26:23.649Z,22.30
2023-05-13T04:27:23.711Z,22.30
2023-05-13T04:28:23.772Z,22.30
2023-05-13T04:29:23.806Z,22.31
2023-05-13T04:30:23.913Z,22.30
2023-05-13T04:31:23.917Z,22.30
2023-05-13T04:32:24.038Z,22.29
2023-05-13T04:33:24.004Z,22.30
2023-05-13T04:34:24.046Z,22.29
2023-05-13T04:35:24.097Z,22.30
2023-05-13T04:36:24.148Z,22.30
2023-05-13T04:37:24.202Z,22.30
2023-05-13T04:38:24.243Z,22.29
2023-05-13T04:39:24.303Z,22.30
2023-05-13T04:40:24.456Z,22.30
2023-05-13T04:41:24.398Z,22.29
2023-05-13T04:42:24.437Z,22.30
2023-05-13T04:43:24.506Z,22.29
2023-05-13T04:44:24.618Z,22.30
2023-05-13T04:45:24.594Z,22.30
2023-05-13T04:46:24.731Z,22.29
2023-05-13T04:47:24.734Z,22.29
2023-05-13T04:48:24.742Z,22.29
2023-05-13T04:49:24.792Z,22.29
2023-05-13T04:50:24.837Z,22.29
2023-05-13T04:51:24.886Z,22.29
2023-05-13T04:52:24.943Z,22.29
2023-05-13T04:53:24.996Z,22.29
2023-05-13T04:54:25.033Z,22.29
2023-05-13T04:55:27.536Z,22.28
2023-05-13T04:56:25.071Z,22.29
2023-05-13T04:57:25.066Z,22.29
2023-05-13T04:58:25.065Z,22.29
2023-05-13T04:59:25.048Z,22.29
2023-05-13T05:00:25.044Z,22.29
2023-05-13T05:01:25.042Z,22.29
2023-05-13T05:02:25.024Z,22.28
2023-05-13T05:03:25.078Z,22.29
2023-05-13T05:04:25.017Z,22.29
2023-05-13T05:05:25.003Z,22.29
2023-05-13T05:06:24.990Z,22.29
2023-05-13T05:07:24.988Z,22.29
2023-05-13T05:08:24.974Z,22.29
2023-05-13T05:09:24.970Z,22.29
2023-05-13T05:10:24.969Z,22.29
2023-05-13T05:11:24.960Z,22.29
2023-05-13T05:12:24.954Z,22.28
2023-05-13T05:13:25.005Z,22.28
2023-05-13T05:14:24.943Z,22.28
2023-05-13T05:15:24.949Z,22.28
2023-05-13T05:16:24.930Z,22.28
2023-05-13T05:17:25.006Z,22.29
2023-05-13T05:18:24.989Z,22.28
2023-05-13T05:19:24.971Z,22.29
2023-05-13T05:20:24.914Z,22.28
2023-05-13T05:21:24.909Z,22.29
2023-05-13T05:22:24.899Z,22.28
2023-05-13T05:23:24.913Z,22.28
2023-05-13T05:24:24.888Z,22.28
2023-05-13T05:25:24.897Z,22.28
2023-05-13T05:26:24.881Z,22.28
2023-05-13T05:27:24.884Z,22.28
2023-05-13T05:28:24.888Z,22.28
2023-05-13T05:29:24.879Z,22.29
2023-05-13T05:30:24.931Z,22.28
2023-05-13T05:31:24.890Z,22.29
2023-05-13T05:32:24.864Z,22.28
2023-05-13T05:33:24.850Z,22.29
2023-05-13T05:34:24.854Z,22.28
2023-05-13T05:35:24.844Z,22.28
2023-05-13T05:36:24.833Z,22.28
2023-05-13T05:37:24.840Z,22.28
2023-05-13T05:38:24.830Z,22.28
2023-05-13T05:39:24.818Z,22.28
2023-05-13T05:40:24.868Z,22.28
2023-05-13T05:41:24.920Z,22.28
2023-05-13T05:42:24.971Z,22.28
2023-05-13T05:43:25.035Z,22.28
2023-05-13T05:44:25.085Z,22.28
2023-05-13T05:45:25.136Z,22.28
2023-05-13T05:46:25.300Z,22.28
2023-05-13T05:47:25.276Z,22.28
2023-05-13T05:48:25.316Z,22.28
2023-05-13T05:49:25.353Z,22.28
2023-05-13T05:50:25.406Z,22.28
2023-05-13T05:51:25.453Z,22.28
2023-05-13T05:52:25.508Z,22.27
2023-05-13T05:53:25.556Z,22.28
2023-05-13T05:54:25.606Z,22.28
2023-05-13T05:55:25.670Z,22.27
2023-05-13T05:56:25.720Z,22.27
2023-05-13T05:57:25.780Z,22.28
2023-05-13T05:58:25.838Z,22.28
2023-05-13T05:59:25.886Z,22.28
2023-05-13T06:00:25.945Z,22.28
2023-05-13T06:01:26.040Z,22.28
2023-05-13T06:02:26.176Z,22.28
2023-05-13T06:03:26.221Z,22.27
2023-05-13T06:04:26.209Z,22.27
2023-05-13T06:05:26.220Z,22.27
2023-05-13T06:06:26.345Z,22.27
2023-05-13T06:07:26.338Z,22.27
2023-05-13T06:08:26.414Z,22.27
2023-05-13T06:09:26.462Z,22.28
2023-05-13T06:10:26.506Z,22.27
2023-05-13T06:11:26.568Z,22.27
2023-05-13T06:12:26.647Z,22.27
2023-05-13T06:13:26.693Z,22.28
2023-05-13T06:14:26.729Z,22.27
2023-05-13T06:15:26.806Z,22.27
2023-05-13T06:16:26.939Z,22.28
2023-05-13T06:17:26.922Z,22.27
2023-05-13T06:18:27.004Z,22.28
2023-05-13T06:19:27.039Z,22.27
2023-05-13T06:20:27.079Z,22.26
2023-05-13T06:21:27.143Z,22.26
2023-05-13T06:22:27.186Z,22.27
2023-05-13T06:23:27.241Z,22.27
2023-05-13T06:24:27.476Z,22.26
2023-05-13T06:25:27.369Z,22.26
2023-05-13T06:26:27.420Z,22.27
2023-05-13T06:27:27.488Z,22.27
2023-05-13T06:28:27.521Z,22.27
2023-05-13T06:29:27.590Z,22.27
2023-05-13T06:30:27.678Z,22.27
2023-05-13T06:31:27.756Z,22.27
2023-05-13T06:32:27.879Z,22.28
2023-05-13T06:33:27.854Z,22.27
2023-05-13T06:34:27.882Z,22.27
2023-05-13T06:35:27.924Z,22.27
2023-05-13T06:36:27.974Z,22.27
2023-05-13T06:37:28.065Z,22.27
2023-05-13T06:38:28.085Z,22.27
2023-05-13T06:39:28.135Z,22.27
2023-05-13T06:40:28.267Z,22.26
2023-05-13T06:41:28.230Z,22.27
2023-05-13T06:42:28.280Z,22.26
2023-05-13T06:43:28.328Z,22.26
2023-05-13T06:44:28.383Z,22.27
2023-05-13T06:45:28.455Z,22.26
2023-05-13T06:46:28.549Z,22.27
2023-05-13T06:47:28.643Z,22.27
2023-05-13T06:48:28.602Z,22.26
2023-05-13T06:49:28.658Z,22.27
2023-05-13T06:50:28.751Z,22.26
2023-05-13T06:51:28.791Z,22.26
2023-05-13T06:52:28.828Z,22.26
2023-05-13T06:53:28.873Z,22.26
2023-05-13T06:54:28.926Z,22.26
2023-05-13T06:55:28.975Z,22.26
2023-05-13T06:56:29.037Z,22.26
2023-05-13T06:57:41.295Z,22.26
2023-05-13T06:58:30.071Z,22.26
2023-05-13T06:59:29.077Z,22.26
2023-05-13T07:00:29.071Z,22.26
2023-05-13T07:01:29.155Z,22.26
2023-05-13T07:02:29.060Z,22.26
2023-05-13T07:03:29.056Z,22.26
2023-05-13T07:04:29.033Z,22.26
2023-05-13T07:05:29.018Z,22.26
2023-05-13T07:06:28.999Z,22.26
2023-05-13T07:07:28.992Z,22.25
2023-05-13T07:08:29.004Z,22.26
2023-05-13T07:09:29.078Z,22.27
2023-05-13T07:10:29.132Z,22.26
2023-05-13T07:11:29.191Z,22.26
2023-05-13T07:12:29.262Z,22.26
2023-05-13T07:13:29.327Z,22.26
2023-05-13T07:14:29.373Z,22.26
2023-05-13T07:15:29.420Z,22.27
2023-05-13T07:16:29.472Z,22.26
2023-05-13T07:17:29.685Z,22.26
2023-05-13T07:18:29.664Z,22.26
2023-05-13T07:19:29.636Z,22.26
2023-05-13T07:20:29.687Z,22.27
2023-05-13T07:21:29.755Z,22.26
2023-05-13T07:22:29.832Z,22.26
2023-05-13T07:23:29.867Z,22.26
2023-05-13T07:24:29.927Z,22.26
2023-05-13T07:25:29.990Z,22.27
2023-05-13T07:26:30.054Z,22.26
2023-05-13T07:27:30.101Z,22.27
2023-05-13T07:28:30.158Z,22.26
2023-05-13T07:29:30.221Z,22.26
2023-05-13T07:30:30.287Z,22.26
2023-05-13T07:31:30.353Z,22.26
2023-05-13T07:32:30.448Z,22.27
2023-05-13T07:33:30.466Z,22.26
2023-05-13T07:34:30.525Z,22.26
2023-05-13T07:35:30.584Z,22.27
2023-05-13T07:36:30.641Z,22.26
2023-05-13T07:37:30.697Z,22.26
2023-05-13T07:38:30.756Z,22.26
2023-05-13T07:39:30.808Z,22.26
2023-05-13T07:40:30.863Z,22.26
2023-05-13T07:41:30.911Z,22.26
2023-05-13T07:42:30.974Z,22.26
2023-05-13T07:43:31.026Z,22.26
2023-05-13T07:44:31.075Z,22.26
2023-05-13T07:45:31.123Z,22.26
2023-05-13T07:46:31.208Z,22.26
2023-05-13T07:47:31.269Z,22.26
2023-05-13T07:48:31.280Z,22.26
2023-05-13T07:49:31.350Z,22.26
2023-05-13T07:50:31.388Z,22.27
2023-05-13T07:51:31.449Z,22.26
2023-05-13T07:52:31.509Z,22.26
2023-05-13T07:53:31.596Z,22.26
2023-05-13T07:54:31.627Z,22.26
2023-05-13T07:55:31.684Z,22.26
2023-05-13T07:56:31.814Z,22.26
2023-05-13T07:57:31.792Z,22.27
2023-05-13T07:58:31.842Z,22.27
2023-05-13T07:59:31.901Z,22.26
2023-05-13T08:00:31.953Z,22.26
2023-05-13T08:01:32.008Z,22.26
2023-05-13T08:02:32.114Z,22.27
2023-05-13T08:03:32.204Z,22.26
2023-05-13T08:04:32.201Z,22.25
2023-05-13T08:05:32.223Z,22.26
2023-05-13T08:06:32.815Z,22.26
2023-05-13T08:07:32.324Z,22.26
2023-05-13T08:08:32.373Z,22.26
2023-05-13T08:09:32.429Z,22.26
2023-05-13T08:10:32.517Z,22.26
2023-05-13T08:11:32.529Z,22.26
2023-05-13T08:12:32.593Z,22.26
2023-05-13T08:13:32.634Z,22.26
2023-05-13T08:14:32.688Z,22.25
2023-05-13T08:15:32.766Z,22.26
2023-05-13T08:16:32.850Z,22.25
2023-05-13T08:17:32.888Z,22.26
2023-05-13T08:18:32.935Z,22.26
2023-05-13T08:19:32.957Z,22.27
2023-05-13T08:20:33.012Z,22.26
2023-05-13T08:21:33.098Z,22.26
2023-05-13T08:22:33.649Z,22.26
2023-05-13T08:23:44.228Z,22.26
2023-05-13T08:24:34.169Z,22.25
2023-05-13T08:25:33.167Z,22.25
2023-05-13T08:26:33.150Z,22.26
2023-05-13T08:27:33.148Z,22.26
2023-05-13T08:28:33.638Z,22.26
2023-05-13T08:29:33.134Z,22.26
2023-05-13T08:30:33.130Z,22.26
2023-05-13T08:31:33.158Z,22.26
2023-05-13T08:32:33.150Z,22.26
2023-05-13T08:33:33.129Z,22.25
2023-05-13T08:34:33.149Z,22.26
2023-05-13T08:35:33.226Z,22.26
2023-05-13T08:36:33.252Z,22.26
2023-05-13T08:37:33.299Z,22.26
2023-05-13T08:38:33.361Z,22.26
2023-05-13T08:39:33.415Z,22.26
2023-05-13T08:40:33.480Z,22.25
2023-05-13T08:41:33.535Z,22.26
2023-05-13T08:42:33.584Z,22.26
2023-05-13T08:43:33.638Z,22.26
2023-05-13T08:44:33.713Z,22.25
2023-05-13T08:45:33.778Z,22.26
2023-05-13T08:46:33.882Z,22.26
2023-05-13T08:47:36.687Z,22.26
2023-05-13T08:48:33.859Z,22.25
2023-05-13T08:49:33.851Z,22.26
2023-05-13T08:50:33.939Z,22.25
2023-05-13T08:51:33.843Z,22.26
2023-05-13T08:52:33.832Z,22.26
2023-05-13T08:53:33.832Z,22.25
2023-05-13T08:54:33.845Z,22.26
2023-05-13T08:55:33.836Z,22.25
2023-05-13T08:56:33.828Z,22.25
2023-05-13T08:57:33.858Z,22.25
2023-05-13T08:58:33.826Z,22.25
2023-05-13T08:59:33.834Z,22.26
2023-05-13T09:00:33.821Z,22.25
2023-05-13T09:01:33.872Z,22.25
2023-05-13T09:02:33.844Z,22.26
2023-05-13T09:03:33.814Z,22.25
2023-05-13T09:04:33.831Z,22.24
2023-05-13T09:05:36.952Z,22.25
2023-05-13T09:06:33.804Z,22.25
2023-05-13T09:07:33.800Z,22.24
2023-05-13T09:08:33.785Z,22.25
2023-05-13T09:09:33.811Z,22.25
2023-05-13T09:10:33.782Z,22.25
2023-05-13T09:11:33.780Z,22.26
2023-05-13T09:12:33.784Z,22.25
2023-05-13T09:13:33.780Z,22.25
2023-05-13T09:14:33.847Z,22.25
2023-05-13T09:15:33.828Z,22.25
2023-05-13T09:16:33.890Z,22.25
2023-05-13T09:17:33.799Z,22.25
2023-05-13T09:18:33.907Z,22.25
2023-05-13T09:19:33.852Z,22.25
2023-05-13T09:20:33.767Z,22.25
2023-05-13T09:21:33.787Z,22.25
2023-05-13T09:22:33.828Z,22.25
2023-05-13T09:23:33.874Z,22.25
2023-05-13T09:24:33.948Z,22.25
2023-05-13T09:25:34.653Z,22.25
2023-05-13T09:26:34.088Z,22.25
2023-05-13T09:27:34.171Z,22.25
2023-05-13T09:28:34.165Z,22.25
2023-05-13T09:29:34.230Z,22.24
2023-05-13T09:30:34.266Z,22.25
2023-05-13T09:31:34.402Z,22.25
2023-05-13T09:32:34.416Z,22.24
2023-05-13T09:33:34.420Z,22.25
2023-05-13T09:34:34.477Z,22.25
2023-05-13T09:35:34.528Z,22.25
2023-05-13T09:36:34.587Z,22.25
2023-05-13T09:37:34.639Z,22.25
2023-05-13T09:38:34.694Z,22.25
2023-05-13T09:39:34.773Z,22.25
2023-05-13T09:40:34.807Z,22.25
2023-05-13T09:41:34.851Z,22.24
2023-05-13T09:42:34.905Z,22.25
2023-05-13T09:43:34.971Z,22.25
2023-05-13T09:44:35.043Z,22.25
2023-05-13T09:45:35.068Z,22.25
2023-05-13T09:46:35.146Z,22.25
2023-05-13T09:47:35.193Z,22.25
2023-05-13T09:48:35.227Z,22.25
2023-05-13T09:49:35.290Z,22.25
2023-05-13T09:50:35.337Z,22.25
2023-05-13T09:51:35.373Z,22.25
2023-05-13T09:52:35.435Z,22.25
2023-05-13T09:53:35.492Z,22.25
2023-05-13T09:54:35.534Z,22.25
2023-05-13T09:55:35.597Z,22.26
2023-05-13T09:56:35.658Z,22.25
2023-05-13T09:57:35.704Z,22.25
2023-05-13T09:58:35.751Z,22.26
2023-05-13T09:59:35.804Z,22.25
2023-05-13T10:00:38.262Z,22.26
2023-05-13T10:01:35.913Z,22.25
2023-05-13T10:02:35.871Z,22.25
2023-05-13T10:03:35.886Z,22.25
2023-05-13T10:04:35.859Z,22.25
2023-05-13T10:05:35.850Z,22.25
2023-05-13T10:06:35.837Z,22.25
2023-05-13T10:07:35.824Z,22.25
2023-05-13T10:08:35.829Z,22.25
2023-05-13T10:09:35.816Z,22.25
2023-05-13T10:10:35.808Z,22.25
2023-05-13T10:11:35.797Z,22.25
2023-05-13T10:12:35.800Z,22.25
2023-05-13T10:13:35.793Z,22.24
2023-05-13T10:14:35.783Z,22.25
2023-05-13T10:15:35.796Z,22.25
2023-05-13T10:16:35.875Z,22.25
2023-05-13T10:17:35.807Z,22.25
2023-05-13T10:18:35.794Z,22.25
2023-05-13T10:19:35.760Z,22.25
2023-05-13T10:20:35.751Z,22.25
2023-05-13T10:21:35.747Z,22.25
2023-05-13T10:22:35.735Z,22.25
2023-05-13T10:23:35.733Z,22.25
2023-05-13T10:24:38.020Z,22.24
2023-05-13T10:25:35.753Z,22.24
2023-05-13T10:26:35.726Z,22.25
2023-05-13T10:27:35.719Z,22.25
2023-05-13T10:28:35.700Z,22.24
2023-05-13T10:29:35.686Z,22.24
2023-05-13T10:30:35.700Z,22.24
2023-05-13T10:31:35.722Z,22.24
2023-05-13T10:32:35.719Z,22.24
2023-05-13T10:33:35.666Z,22.24
2023-05-13T10:34:35.671Z,22.24
2023-05-13T10:35:38.083Z,22.23
2023-05-13T10:36:35.648Z,22.24
2023-05-13T10:37:35.641Z,22.23
2023-05-13T10:38:35.629Z,22.23
2023-05-13T10:39:35.625Z,22.23
2023-05-13T10:40:35.642Z,22.24
2023-05-13T10:41:35.607Z,22.24
2023-05-13T10:42:35.601Z,22.24
2023-05-13T10:43:35.604Z,22.24
2023-05-13T10:44:35.600Z,22.23
2023-05-13T10:45:35.582Z,22.23
2023-05-13T10:46:35.693Z,22.23
2023-05-13T10:47:35.612Z,22.23
2023-05-13T10:48:35.642Z,22.24
2023-05-13T10:49:35.572Z,22.23
2023-05-13T10:50:35.564Z,22.23
2023-05-13T10:51:35.558Z,22.23
2023-05-13T10:52:35.554Z,22.22
2023-05-13T10:53:35.554Z,22.23
2023-05-13T10:54:35.542Z,22.24
2023-05-13T10:55:35.542Z,22.24
2023-05-13T10:56:35.537Z,22.23
2023-05-13T10:57:35.574Z,22.23
2023-05-13T10:58:35.542Z,22.24
2023-05-13T10:59:35.531Z,22.23
2023-05-13T11:00:35.546Z,22.23
2023-05-13T11:01:35.630Z,22.23
2023-05-13T11:02:35.563Z,22.23
2023-05-13T11:03:35.626Z,22.23
2023-05-13T11:04:35.531Z,22.24
2023-05-13T11:05:35.533Z,22.23
2023-05-13T11:06:35.536Z,22.22
2023-05-13T11:07:35.554Z,22.24
2023-05-13T11:08:35.660Z,22.24
2023-05-13T11:09:35.644Z,22.23
2023-05-13T11:10:35.690Z,22.23
2023-05-13T11:11:35.777Z,22.24
2023-05-13T11:12:35.805Z,22.23
2023-05-13T11:13:35.859Z,22.23
2023-05-13T11:14:35.911Z,22.23
2023-05-13T11:15:35.970Z,22.23
2023-05-13T11:16:36.157Z,22.23
2023-05-13T11:17:36.117Z,22.23
2023-05-13T11:18:36.161Z,22.23
2023-05-13T11:19:36.218Z,22.24
2023-05-13T11:20:51.134Z,22.23
2023-05-13T11:21:37.239Z,22.23
2023-05-13T11:22:36.232Z,22.23
2023-05-13T11:23:36.224Z,22.23
2023-05-13T11:24:36.234Z,22.23
2023-05-13T11:25:36.214Z,22.23
2023-05-13T11:26:36.208Z,22.23
2023-05-13T11:27:36.204Z,22.24
2023-05-13T11:28:36.191Z,22.24
2023-05-13T11:29:36.188Z,22.23
2023-05-13T11:30:36.188Z,22.23
2023-05-13T11:31:36.285Z,22.24
2023-05-13T11:32:36.313Z,22.23
2023-05-13T11:33:36.355Z,22.23
2023-05-13T11:34:36.413Z,22.23
2023-05-13T11:35:36.472Z,22.23
2023-05-13T11:36:36.521Z,22.24
2023-05-13T11:37:36.579Z,22.24
2023-05-13T11:38:36.630Z,22.23
2023-05-13T11:39:36.680Z,22.23
2023-05-13T11:40:36.738Z,22.23
2023-05-13T11:41:36.782Z,22.23
2023-05-13T11:42:36.837Z,22.23
2023-05-13T11:43:36.893Z,22.23
2023-05-13T11:44:36.941Z,22.23
2023-05-13T11:45:37.003Z,22.23
2023-05-13T11:46:37.054Z,22.23
2023-05-13T11:47:37.150Z,22.24
2023-05-13T11:48:37.160Z,22.24
2023-05-13T11:49:37.242Z,22.23
2023-05-13T11:50:37.270Z,22.24
2023-05-13T11:51:37.318Z,22.23
2023-05-13T11:52:37.376Z,22.23
2023-05-13T11:53:37.420Z,22.24
2023-05-13T11:54:37.466Z,22.23
2023-05-13T11:55:37.552Z,22.23
2023-05-13T11:56:37.581Z,22.23
2023-05-13T11:57:37.632Z,22.24
2023-05-13T11:58:38.655Z,22.23
2023-05-13T11:59:47.637Z,22.23
2023-05-13T12:00:38.727Z,22.24
2023-05-13T12:01:37.718Z,22.24
2023-05-13T12:02:37.983Z,22.24
2023-05-13T12:03:37.848Z,22.25
2023-05-13T12:04:37.745Z,22.24
2023-05-13T12:05:37.868Z,22.25
2023-05-13T12:06:37.665Z,22.25
2023-05-13T12:07:37.659Z,22.25
2023-05-13T12:08:37.652Z,22.25
2023-05-13T12:09:37.720Z,22.25
2023-05-13T12:10:37.645Z,22.25
2023-05-13T12:11:37.683Z,22.25
2023-05-13T12:12:37.745Z,22.25
2023-05-13T12:13:37.786Z,22.26
2023-05-13T12:14:37.821Z,22.26
2023-05-13T12:15:37.945Z,22.26
2023-05-13T12:16:37.906Z,22.27
2023-05-13T12:17:38.012Z,22.26
2023-05-13T12:18:38.114Z,22.27
2023-05-13T12:19:38.032Z,22.27
2023-05-13T12:20:38.112Z,22.28
2023-05-13T12:21:38.132Z,22.28
2023-05-13T12:22:38.168Z,22.28
2023-05-13T12:23:38.238Z,22.27
2023-05-13T12:24:38.255Z,22.28
2023-05-13T12:25:38.345Z,22.28
2023-05-13T12:26:38.337Z,22.28
2023-05-13T12:27:38.376Z,22.29
2023-05-13T12:28:38.406Z,22.28
2023-05-13T12:29:38.445Z,22.28
2023-05-13T12:30:38.473Z,22.28
2023-05-13T12:31:38.555Z,22.30
2023-05-13T12:32:38.571Z,22.30
2023-05-13T12:33:38.582Z,22.29
2023-05-13T12:34:38.630Z,22.31
2023-05-13T12:35:38.663Z,22.30
2023-05-13T12:36:38.835Z,22.31
2023-05-13T12:37:38.733Z,22.31
2023-05-13T12:38:38.770Z,22.31
2023-05-13T12:39:38.817Z,22.32
2023-05-13T12:40:38.889Z,22.31
2023-05-13T12:41:38.885Z,22.32
2023-05-13T12:42:38.909Z,22.32
2023-05-13T12:43:38.936Z,22.32
2023-05-13T12:44:38.979Z,22.33
2023-05-13T12:45:41.565Z,22.33
2023-05-13T12:46:39.032Z,22.33
2023-05-13T12:47:39.013Z,22.33
2023-05-13T12:48:38.992Z,22.33
2023-05-13T12:49:38.979Z,22.34
2023-05-13T12:50:39.168Z,22.34
2023-05-13T12:51:38.963Z,22.34
2023-05-13T12:52:38.954Z,22.34